DTA565 DNMM-FNBJ
Flight info
| Callsign | DTA565 |
|---|---|
| Flight time | 2h 38m |
| Altitude | 35000 |
| Route | PISBA1Q PISBA DCT MBO DCT LV UR526 VNA |
| Aircraft | B77W/H-SDE1E2E3FGHIJ2J3J4J5M1RWXY/LB1D1 |
Departure
| Time | 2026-04-27 00:14 |
|---|---|
| Airport | Murtala Muhammed International Airport (DNMM) |
Arrival
| Time | 2026-04-27 02:52 |
|---|---|
| Airport | Dr. Antonio Agostinho Neto International Airport (FNBJ) |
| Time | Latitude | Longitude | Altitude | Speed | Heading |
|---|---|---|---|---|---|
| 2026-04-26 23:48 | 6.57998 | 3.31896 | 102 ft | 0 kts | 68° |
| 2026-04-27 00:06 | 6.57991 | 3.31882 | 106 ft | 3 kts | 59° |
| 2026-04-27 00:06 | 6.57980 | 3.31865 | 103 ft | 3 kts | 56° |
| 2026-04-27 00:07 | 6.57972 | 3.31851 | 101 ft | 3 kts | 57° |
| 2026-04-27 00:07 | 6.57960 | 3.31838 | 104 ft | 3 kts | 15° |
| 2026-04-27 00:07 | 6.57941 | 3.31837 | 101 ft | 3 kts | 342° |
| 2026-04-27 00:07 | 6.57927 | 3.31843 | 101 ft | 1 kts | 338° |
| 2026-04-27 00:08 | 6.57926 | 3.31843 | 101 ft | 0 kts | 338° |
| 2026-04-27 00:10 | 6.57927 | 3.31842 | 99 ft | 2 kts | 338° |
| 2026-04-27 00:10 | 6.57974 | 3.31823 | 104 ft | 14 kts | 338° |
| 2026-04-27 00:10 | 6.58082 | 3.31777 | 103 ft | 16 kts | 331° |
| 2026-04-27 00:10 | 6.58097 | 3.31675 | 105 ft | 16 kts | 250° |
| 2026-04-27 00:11 | 6.58064 | 3.31566 | 104 ft | 16 kts | 281° |
| 2026-04-27 00:11 | 6.58163 | 3.31526 | 104 ft | 17 kts | 359° |
| 2026-04-27 00:11 | 6.58278 | 3.31525 | 106 ft | 17 kts | 359° |
| 2026-04-27 00:11 | 6.58393 | 3.31523 | 107 ft | 17 kts | 359° |
| 2026-04-27 00:12 | 6.58509 | 3.31522 | 107 ft | 17 kts | 359° |
| 2026-04-27 00:12 | 6.58624 | 3.31520 | 107 ft | 17 kts | 359° |
| 2026-04-27 00:12 | 6.58739 | 3.31519 | 107 ft | 17 kts | 358° |
| 2026-04-27 00:12 | 6.58812 | 3.31445 | 105 ft | 17 kts | 275° |
| 2026-04-27 00:13 | 6.58767 | 3.31344 | 107 ft | 17 kts | 222° |
| 2026-04-27 00:13 | 6.58656 | 3.31315 | 107 ft | 21 kts | 179° |
| 2026-04-27 00:13 | 6.58317 | 3.31318 | 105 ft | 86 kts | 179° |
| 2026-04-27 00:13 | 6.57486 | 3.31329 | 99 ft | 154 kts | 179° |
| 2026-04-27 00:14 | 6.56259 | 3.31344 | 302 ft | 184 kts | 179° |
| 2026-04-27 00:14 | 6.54987 | 3.31359 | 992 ft | 186 kts | 178° |
| 2026-04-27 00:14 | 6.53723 | 3.31376 | 1788 ft | 179 kts | 178° |
| 2026-04-27 00:14 | 6.52423 | 3.31399 | 2159 ft | 198 kts | 178° |
| 2026-04-27 00:15 | 6.51455 | 3.31431 | 2303 ft | 213 kts | 173° |
| 2026-04-27 00:15 | 6.49916 | 3.31734 | 2531 ft | 238 kts | 165° |
| 2026-04-27 00:15 | 6.48299 | 3.32172 | 3061 ft | 248 kts | 164° |
| 2026-04-27 00:15 | 6.46593 | 3.32631 | 3684 ft | 257 kts | 164° |
| 2026-04-27 00:16 | 6.44824 | 3.33085 | 4326 ft | 267 kts | 164° |
| 2026-04-27 00:16 | 6.43000 | 3.33540 | 5060 ft | 272 kts | 164° |
| 2026-04-27 00:16 | 6.41157 | 3.33994 | 5872 ft | 274 kts | 163° |
| 2026-04-27 00:16 | 6.39316 | 3.34481 | 6620 ft | 273 kts | 156° |
| 2026-04-27 00:17 | 6.37764 | 3.35532 | 7166 ft | 271 kts | 124° |
| 2026-04-27 00:17 | 6.36776 | 3.37119 | 7819 ft | 268 kts | 117° |
| 2026-04-27 00:17 | 6.35838 | 3.38729 | 8509 ft | 271 kts | 118° |
| 2026-04-27 00:17 | 6.34870 | 3.40360 | 9296 ft | 272 kts | 118° |
| 2026-04-27 00:18 | 6.33889 | 3.41989 | 10046 ft | 273 kts | 118° |
| 2026-04-27 00:18 | 6.32881 | 3.43656 | 10442 ft | 289 kts | 118° |
| 2026-04-27 00:18 | 6.31799 | 3.45449 | 10567 ft | 308 kts | 119° |
| 2026-04-27 00:18 | 6.30658 | 3.47337 | 10683 ft | 324 kts | 119° |
| 2026-04-27 00:19 | 6.29460 | 3.49316 | 10783 ft | 338 kts | 119° |
| 2026-04-27 00:19 | 6.28211 | 3.51374 | 10870 ft | 351 kts | 119° |
| 2026-04-27 00:19 | 6.26918 | 3.53500 | 11029 ft | 361 kts | 120° |
| 2026-04-27 00:19 | 6.25593 | 3.55676 | 11258 ft | 368 kts | 120° |
| 2026-04-27 00:20 | 6.24251 | 3.57876 | 11599 ft | 371 kts | 120° |
| 2026-04-27 00:20 | 6.22897 | 3.60098 | 12003 ft | 374 kts | 120° |
| 2026-04-27 00:20 | 6.21538 | 3.62330 | 12420 ft | 376 kts | 120° |
| 2026-04-27 00:20 | 6.20167 | 3.64581 | 12796 ft | 379 kts | 121° |
| 2026-04-27 00:21 | 6.18786 | 3.66850 | 13156 ft | 382 kts | 121° |
| 2026-04-27 00:21 | 6.17391 | 3.69141 | 13512 ft | 385 kts | 121° |
| 2026-04-27 00:21 | 6.16006 | 3.71419 | 13860 ft | 388 kts | 121° |
| 2026-04-27 00:21 | 6.14592 | 3.73743 | 14157 ft | 391 kts | 121° |
| 2026-04-27 00:22 | 6.13169 | 3.76082 | 14458 ft | 394 kts | 121° |
| 2026-04-27 00:22 | 6.11734 | 3.78442 | 14753 ft | 397 kts | 121° |
| 2026-04-27 00:22 | 6.10287 | 3.80817 | 15035 ft | 400 kts | 121° |
| 2026-04-27 00:22 | 6.08832 | 3.83207 | 15347 ft | 402 kts | 121° |
| 2026-04-27 00:23 | 6.07368 | 3.85614 | 15647 ft | 405 kts | 120° |
| 2026-04-27 00:23 | 6.05886 | 3.88050 | 15764 ft | 412 kts | 120° |
| 2026-04-27 00:23 | 6.04383 | 3.90520 | 16015 ft | 415 kts | 120° |
| 2026-04-27 00:23 | 6.02876 | 3.92999 | 16323 ft | 416 kts | 120° |
| 2026-04-27 00:24 | 6.01365 | 3.95482 | 16599 ft | 418 kts | 120° |
| 2026-04-27 00:24 | 5.99841 | 3.97983 | 16844 ft | 421 kts | 120° |
| 2026-04-27 00:24 | 5.98327 | 4.00472 | 17097 ft | 426 kts | 120° |
| 2026-04-27 00:24 | 5.96769 | 4.03032 | 17725 ft | 431 kts | 120° |
| 2026-04-27 00:25 | 5.95200 | 4.05611 | 18372 ft | 435 kts | 120° |
| 2026-04-27 00:25 | 5.93613 | 4.08217 | 18983 ft | 438 kts | 120° |
| 2026-04-27 00:25 | 5.92073 | 4.10861 | 19661 ft | 439 kts | 117° |
| 2026-04-27 00:25 | 5.90648 | 4.13575 | 20326 ft | 440 kts | 115° |
| 2026-04-27 00:26 | 5.89315 | 4.16346 | 20953 ft | 442 kts | 114° |
| 2026-04-27 00:26 | 5.88060 | 4.19180 | 21554 ft | 445 kts | 112° |
| 2026-04-27 00:26 | 5.86849 | 4.22042 | 22191 ft | 446 kts | 112° |
| 2026-04-27 00:26 | 5.85636 | 4.24911 | 22815 ft | 448 kts | 112° |
| 2026-04-27 00:27 | 5.84394 | 4.27795 | 23383 ft | 451 kts | 112° |
| 2026-04-27 00:27 | 5.83116 | 4.30684 | 23832 ft | 455 kts | 113° |
| 2026-04-27 00:27 | 5.81803 | 4.33588 | 24230 ft | 459 kts | 114° |
| 2026-04-27 00:27 | 5.80461 | 4.36509 | 24650 ft | 463 kts | 114° |
| 2026-04-27 00:28 | 5.79099 | 4.39448 | 25044 ft | 466 kts | 114° |
| 2026-04-27 00:28 | 5.77722 | 4.42407 | 25453 ft | 469 kts | 114° |
| 2026-04-27 00:28 | 5.76334 | 4.45386 | 25850 ft | 473 kts | 114° |
| 2026-04-27 00:28 | 5.74955 | 4.48350 | 26230 ft | 476 kts | 114° |
| 2026-04-27 00:29 | 5.73550 | 4.51375 | 26617 ft | 479 kts | 114° |
| 2026-04-27 00:29 | 5.72139 | 4.54416 | 26989 ft | 482 kts | 114° |
| 2026-04-27 00:29 | 5.70719 | 4.57479 | 27372 ft | 485 kts | 114° |
| 2026-04-27 00:29 | 5.69291 | 4.60565 | 27746 ft | 488 kts | 115° |
| 2026-04-27 00:30 | 5.67853 | 4.63673 | 28033 ft | 493 kts | 115° |
| 2026-04-27 00:30 | 5.66399 | 4.66814 | 28317 ft | 497 kts | 115° |
| 2026-04-27 00:30 | 5.64938 | 4.69966 | 28663 ft | 500 kts | 115° |
| 2026-04-27 00:30 | 5.63463 | 4.73145 | 29000 ft | 502 kts | 115° |
| 2026-04-27 00:31 | 5.61983 | 4.76335 | 29312 ft | 505 kts | 115° |
| 2026-04-27 00:31 | 5.60495 | 4.79541 | 29599 ft | 507 kts | 115° |
| 2026-04-27 00:31 | 5.59002 | 4.82759 | 29866 ft | 510 kts | 115° |
| 2026-04-27 00:31 | 5.57501 | 4.85994 | 30179 ft | 510 kts | 115° |
| 2026-04-27 00:32 | 5.56007 | 4.89212 | 30614 ft | 508 kts | 115° |
| 2026-04-27 00:32 | 5.54518 | 4.92420 | 31021 ft | 506 kts | 115° |
| 2026-04-27 00:32 | 5.53033 | 4.95615 | 31401 ft | 505 kts | 115° |
| 2026-04-27 00:32 | 5.51556 | 4.98798 | 31921 ft | 500 kts | 115° |
| 2026-04-27 00:33 | 5.50163 | 5.01798 | 32354 ft | 498 kts | 115° |
| 2026-04-27 00:33 | 5.48700 | 5.04951 | 32730 ft | 497 kts | 115° |
| 2026-04-27 00:33 | 5.47237 | 5.08100 | 33053 ft | 498 kts | 115° |
| 2026-04-27 00:33 | 5.45774 | 5.11249 | 33360 ft | 498 kts | 115° |
| 2026-04-27 00:34 | 5.44312 | 5.14396 | 33720 ft | 497 kts | 115° |
| 2026-04-27 00:34 | 5.42848 | 5.17546 | 34048 ft | 497 kts | 115° |
| 2026-04-27 00:34 | 5.41390 | 5.20683 | 34382 ft | 495 kts | 115° |
| 2026-04-27 00:34 | 5.39937 | 5.23809 | 34768 ft | 492 kts | 115° |
| 2026-04-27 00:35 | 5.38489 | 5.26921 | 34927 ft | 492 kts | 115° |
| 2026-04-27 00:35 | 5.37040 | 5.30037 | 34915 ft | 493 kts | 115° |
| 2026-04-27 00:35 | 5.34142 | 5.36267 | 34913 ft | 491 kts | 115° |
| 2026-04-27 00:36 | 5.31277 | 5.42426 | 34913 ft | 490 kts | 115° |
| 2026-04-27 00:36 | 5.28397 | 5.48618 | 34919 ft | 489 kts | 115° |
| 2026-04-27 00:37 | 5.25521 | 5.54797 | 34914 ft | 488 kts | 115° |
| 2026-04-27 00:37 | 5.22645 | 5.60976 | 34916 ft | 488 kts | 115° |
| 2026-04-27 00:38 | 5.19789 | 5.67108 | 34919 ft | 488 kts | 115° |
| 2026-04-27 00:38 | 5.16911 | 5.73285 | 34916 ft | 489 kts | 114° |
| 2026-04-27 00:39 | 5.14031 | 5.79462 | 34918 ft | 489 kts | 114° |
| 2026-04-27 00:39 | 5.11149 | 5.85643 | 34918 ft | 489 kts | 114° |
| 2026-04-27 00:40 | 5.08265 | 5.91830 | 34918 ft | 489 kts | 114° |
| 2026-04-27 00:40 | 5.05382 | 5.98012 | 34918 ft | 489 kts | 114° |
| 2026-04-27 00:41 | 5.02540 | 6.04102 | 34916 ft | 489 kts | 114° |
| 2026-04-27 00:41 | 4.99677 | 6.10235 | 34912 ft | 489 kts | 114° |
| 2026-04-27 00:42 | 4.96788 | 6.16424 | 34916 ft | 490 kts | 115° |
| 2026-04-27 00:42 | 4.93898 | 6.22612 | 34915 ft | 490 kts | 115° |
| 2026-04-27 00:43 | 4.91007 | 6.28800 | 34915 ft | 490 kts | 114° |
| 2026-04-27 00:43 | 4.88114 | 6.34990 | 34911 ft | 490 kts | 114° |
| 2026-04-27 00:44 | 4.85243 | 6.41132 | 34909 ft | 489 kts | 114° |
| 2026-04-27 00:44 | 4.82358 | 6.47304 | 34912 ft | 489 kts | 115° |
| 2026-04-27 00:45 | 4.79469 | 6.53483 | 34909 ft | 489 kts | 115° |
| 2026-04-27 00:45 | 4.76580 | 6.59659 | 34902 ft | 488 kts | 115° |
| 2026-04-27 00:46 | 4.73694 | 6.65826 | 34907 ft | 488 kts | 115° |
| 2026-04-27 00:46 | 4.70811 | 6.71986 | 34904 ft | 488 kts | 115° |
| 2026-04-27 00:47 | 4.67944 | 6.78108 | 34900 ft | 488 kts | 115° |
| 2026-04-27 00:47 | 4.65057 | 6.84271 | 34899 ft | 488 kts | 115° |
| 2026-04-27 00:48 | 4.62174 | 6.90425 | 34903 ft | 487 kts | 115° |
| 2026-04-27 00:48 | 4.59293 | 6.96576 | 34901 ft | 487 kts | 115° |
| 2026-04-27 00:49 | 4.56467 | 7.02606 | 34900 ft | 486 kts | 115° |
| 2026-04-27 00:49 | 4.53608 | 7.08704 | 34895 ft | 486 kts | 114° |
| 2026-04-27 00:50 | 4.49301 | 7.17885 | 34897 ft | 484 kts | 114° |
| 2026-04-27 00:51 | 4.46439 | 7.23986 | 34899 ft | 483 kts | 114° |
| 2026-04-27 00:51 | 4.43577 | 7.30088 | 34899 ft | 483 kts | 114° |
| 2026-04-27 00:52 | 4.40734 | 7.36147 | 34897 ft | 483 kts | 114° |
| 2026-04-27 00:52 | 4.37870 | 7.42249 | 34899 ft | 483 kts | 114° |
| 2026-04-27 00:53 | 4.35008 | 7.48344 | 34898 ft | 483 kts | 114° |
| 2026-04-27 00:53 | 4.32146 | 7.54437 | 34901 ft | 483 kts | 114° |
| 2026-04-27 00:54 | 4.29294 | 7.60508 | 34898 ft | 484 kts | 115° |
| 2026-04-27 00:54 | 4.26425 | 7.66616 | 34898 ft | 484 kts | 115° |
| 2026-04-27 00:55 | 4.23554 | 7.72723 | 34894 ft | 484 kts | 115° |
| 2026-04-27 00:55 | 4.20679 | 7.78837 | 34895 ft | 484 kts | 115° |
| 2026-04-27 00:56 | 4.17807 | 7.84942 | 34893 ft | 484 kts | 115° |
| 2026-04-27 00:56 | 4.14936 | 7.91045 | 34899 ft | 484 kts | 115° |
| 2026-04-27 00:57 | 4.12062 | 7.97154 | 34897 ft | 484 kts | 115° |
| 2026-04-27 00:57 | 4.09260 | 8.03113 | 34893 ft | 484 kts | 115° |
| 2026-04-27 00:58 | 4.06384 | 8.09224 | 34892 ft | 484 kts | 115° |
| 2026-04-27 00:58 | 4.03514 | 8.15318 | 34894 ft | 484 kts | 115° |
| 2026-04-27 00:59 | 4.00642 | 8.21415 | 34898 ft | 484 kts | 115° |
| 2026-04-27 00:59 | 3.97774 | 8.27504 | 34896 ft | 484 kts | 115° |
| 2026-04-27 01:00 | 3.94899 | 8.33607 | 34898 ft | 484 kts | 115° |
| 2026-04-27 01:00 | 3.92026 | 8.39699 | 34916 ft | 483 kts | 114° |
| 2026-04-27 01:01 | 3.89180 | 8.45736 | 34918 ft | 482 kts | 114° |
| 2026-04-27 01:01 | 3.86321 | 8.51804 | 34929 ft | 481 kts | 114° |
| 2026-04-27 01:02 | 3.83468 | 8.57859 | 34934 ft | 480 kts | 114° |
| 2026-04-27 01:02 | 3.80617 | 8.63906 | 34941 ft | 480 kts | 114° |
| 2026-04-27 01:03 | 3.77340 | 8.69660 | 34938 ft | 477 kts | 133° |
| 2026-04-27 01:03 | 3.71744 | 8.73175 | 34944 ft | 487 kts | 160° |
| 2026-04-27 01:04 | 3.66157 | 8.74284 | 34953 ft | 491 kts | 169° |
| 2026-04-27 01:04 | 3.59528 | 8.75349 | 34942 ft | 484 kts | 166° |
| 2026-04-27 01:05 | 3.52877 | 8.76802 | 34957 ft | 493 kts | 164° |
| 2026-04-27 01:05 | 3.46164 | 8.78331 | 34937 ft | 495 kts | 165° |
| 2026-04-27 01:06 | 3.39430 | 8.79785 | 34927 ft | 494 kts | 165° |
| 2026-04-27 01:06 | 3.32704 | 8.81181 | 34928 ft | 493 kts | 166° |
| 2026-04-27 01:07 | 3.26037 | 8.82553 | 34926 ft | 492 kts | 166° |
| 2026-04-27 01:07 | 3.19333 | 8.83940 | 34923 ft | 491 kts | 166° |
| 2026-04-27 01:08 | 3.12642 | 8.85329 | 34909 ft | 490 kts | 166° |
| 2026-04-27 01:08 | 3.05957 | 8.86719 | 34908 ft | 490 kts | 166° |
| 2026-04-27 01:09 | 2.99285 | 8.88106 | 34891 ft | 490 kts | 166° |
| 2026-04-27 01:09 | 2.92634 | 8.89487 | 34892 ft | 491 kts | 166° |
| 2026-04-27 01:10 | 2.85931 | 8.90879 | 34891 ft | 491 kts | 166° |
| 2026-04-27 01:10 | 2.79235 | 8.92268 | 34893 ft | 492 kts | 166° |
| 2026-04-27 01:11 | 2.72522 | 8.93662 | 34895 ft | 492 kts | 166° |
| 2026-04-27 01:11 | 2.65810 | 8.95055 | 34889 ft | 492 kts | 166° |
| 2026-04-27 01:12 | 2.59146 | 8.96438 | 34894 ft | 493 kts | 166° |
| 2026-04-27 01:12 | 2.52422 | 8.97833 | 34896 ft | 493 kts | 166° |
| 2026-04-27 01:13 | 2.45692 | 8.99229 | 34891 ft | 493 kts | 166° |
| 2026-04-27 01:13 | 2.39077 | 9.00602 | 34892 ft | 494 kts | 166° |
| 2026-04-27 01:14 | 2.32334 | 9.02000 | 34891 ft | 494 kts | 166° |
| 2026-04-27 01:14 | 2.25613 | 9.03394 | 34891 ft | 494 kts | 166° |
| 2026-04-27 01:15 | 2.18880 | 9.04791 | 34890 ft | 494 kts | 166° |
| 2026-04-27 01:15 | 2.12144 | 9.06188 | 34889 ft | 494 kts | 166° |
| 2026-04-27 01:16 | 2.05460 | 9.07574 | 34893 ft | 494 kts | 166° |
| 2026-04-27 01:16 | 1.98735 | 9.08968 | 34889 ft | 494 kts | 166° |
| 2026-04-27 01:17 | 1.91996 | 9.10364 | 34895 ft | 494 kts | 166° |
| 2026-04-27 01:17 | 1.85256 | 9.11763 | 34892 ft | 494 kts | 166° |
| 2026-04-27 01:18 | 1.78514 | 9.13162 | 34890 ft | 494 kts | 166° |
| 2026-04-27 01:18 | 1.71780 | 9.14557 | 34897 ft | 494 kts | 166° |
| 2026-04-27 01:19 | 1.65049 | 9.15951 | 34904 ft | 494 kts | 166° |
| 2026-04-27 01:19 | 1.58322 | 9.17345 | 34903 ft | 494 kts | 166° |
| 2026-04-27 01:20 | 1.51632 | 9.18734 | 34903 ft | 494 kts | 166° |
| 2026-04-27 01:20 | 1.44899 | 9.20129 | 34899 ft | 494 kts | 166° |
| 2026-04-27 01:21 | 1.38155 | 9.21525 | 34904 ft | 495 kts | 166° |
| 2026-04-27 01:21 | 1.31406 | 9.22922 | 34903 ft | 495 kts | 166° |
| 2026-04-27 01:22 | 1.24654 | 9.24322 | 34909 ft | 495 kts | 166° |
| 2026-04-27 01:22 | 1.17898 | 9.25722 | 34915 ft | 496 kts | 166° |
| 2026-04-27 01:23 | 1.11140 | 9.27121 | 34914 ft | 496 kts | 166° |
| 2026-04-27 01:23 | 1.04418 | 9.28513 | 34920 ft | 496 kts | 166° |
| 2026-04-27 01:24 | 0.97653 | 9.29914 | 34911 ft | 497 kts | 166° |
| 2026-04-27 01:24 | 0.90875 | 9.31318 | 34920 ft | 497 kts | 166° |
| 2026-04-27 01:25 | 0.84104 | 9.32721 | 34922 ft | 497 kts | 166° |
| 2026-04-27 01:25 | 0.77324 | 9.34125 | 34923 ft | 497 kts | 166° |
| 2026-04-27 01:26 | 0.70585 | 9.35521 | 34925 ft | 497 kts | 166° |
| 2026-04-27 01:26 | 0.63811 | 9.36924 | 34919 ft | 496 kts | 166° |
| 2026-04-27 01:27 | 0.57045 | 9.38326 | 34936 ft | 496 kts | 166° |
| 2026-04-27 01:27 | 0.50290 | 9.39730 | 34923 ft | 492 kts | 165° |
| 2026-04-27 01:28 | 0.43847 | 9.41717 | 34957 ft | 483 kts | 153° |
| 2026-04-27 01:28 | 0.37764 | 9.44707 | 34941 ft | 487 kts | 151° |
| 2026-04-27 01:29 | 0.31615 | 9.47386 | 34947 ft | 488 kts | 157° |
| 2026-04-27 01:29 | 0.25155 | 9.49727 | 34947 ft | 498 kts | 157° |
| 2026-04-27 01:30 | 0.18690 | 9.52177 | 34933 ft | 496 kts | 156° |
| 2026-04-27 01:30 | 0.12290 | 9.54772 | 34936 ft | 495 kts | 155° |
| 2026-04-27 01:31 | 0.05935 | 9.57408 | 34936 ft | 494 kts | 155° |
| 2026-04-27 01:31 | -0.00418 | 9.60031 | 34937 ft | 494 kts | 155° |
| 2026-04-27 01:32 | -0.06782 | 9.62640 | 34931 ft | 493 kts | 155° |
| 2026-04-27 01:32 | -0.13131 | 9.65238 | 34932 ft | 493 kts | 155° |
| 2026-04-27 01:33 | -0.19443 | 9.67822 | 34933 ft | 493 kts | 155° |
| 2026-04-27 01:33 | -0.25790 | 9.70422 | 34939 ft | 493 kts | 155° |
| 2026-04-27 01:34 | -0.32150 | 9.73028 | 34921 ft | 493 kts | 155° |
| 2026-04-27 01:34 | -0.38518 | 9.75637 | 34937 ft | 494 kts | 155° |
| 2026-04-27 01:35 | -0.44839 | 9.78226 | 34934 ft | 494 kts | 155° |
| 2026-04-27 01:35 | -0.51202 | 9.80833 | 34937 ft | 494 kts | 155° |
| 2026-04-27 01:36 | -0.57567 | 9.83442 | 34937 ft | 494 kts | 155° |
| 2026-04-27 01:36 | -0.63930 | 9.86048 | 34934 ft | 494 kts | 155° |
| 2026-04-27 01:37 | -0.70277 | 9.88643 | 34933 ft | 495 kts | 155° |
| 2026-04-27 01:37 | -0.76658 | 9.91251 | 34928 ft | 495 kts | 155° |
| 2026-04-27 01:38 | -0.83033 | 9.93857 | 34926 ft | 495 kts | 155° |
| 2026-04-27 01:38 | -0.89406 | 9.96463 | 34931 ft | 495 kts | 155° |
| 2026-04-27 01:39 | -0.95797 | 9.99079 | 34932 ft | 495 kts | 155° |
| 2026-04-27 01:39 | -1.02023 | 10.01626 | 34934 ft | 495 kts | 155° |
| 2026-04-27 01:40 | -1.08414 | 10.04241 | 34916 ft | 495 kts | 155° |
| 2026-04-27 01:40 | -1.14796 | 10.06851 | 34934 ft | 495 kts | 155° |
| 2026-04-27 01:41 | -1.21178 | 10.09461 | 34930 ft | 495 kts | 155° |
| 2026-04-27 01:41 | -1.27559 | 10.12072 | 34932 ft | 495 kts | 155° |
| 2026-04-27 01:42 | -1.33902 | 10.14669 | 34937 ft | 496 kts | 155° |
| 2026-04-27 01:42 | -1.40287 | 10.17282 | 34935 ft | 496 kts | 155° |
| 2026-04-27 01:43 | -1.46678 | 10.19897 | 34935 ft | 496 kts | 155° |
| 2026-04-27 01:43 | -1.53069 | 10.22513 | 34938 ft | 496 kts | 155° |
| 2026-04-27 01:44 | -1.59457 | 10.25127 | 34937 ft | 495 kts | 155° |
| 2026-04-27 01:44 | -1.65794 | 10.27721 | 34922 ft | 495 kts | 155° |
| 2026-04-27 01:45 | -1.72181 | 10.30336 | 34926 ft | 495 kts | 155° |
| 2026-04-27 01:45 | -1.78551 | 10.32945 | 34927 ft | 495 kts | 155° |
| 2026-04-27 01:46 | -1.84923 | 10.35554 | 34924 ft | 495 kts | 155° |
| 2026-04-27 01:46 | -1.91292 | 10.38185 | 34942 ft | 495 kts | 155° |
| 2026-04-27 01:47 | -1.97615 | 10.40810 | 34941 ft | 494 kts | 155° |
| 2026-04-27 01:47 | -2.03966 | 10.43440 | 34946 ft | 494 kts | 155° |
| 2026-04-27 01:48 | -2.10331 | 10.46065 | 34930 ft | 494 kts | 155° |
| 2026-04-27 01:48 | -2.16694 | 10.48670 | 34944 ft | 494 kts | 155° |
| 2026-04-27 01:49 | -2.23055 | 10.51273 | 34933 ft | 494 kts | 155° |
| 2026-04-27 01:49 | -2.29420 | 10.53883 | 34930 ft | 494 kts | 155° |
| 2026-04-27 01:50 | -2.34707 | 10.56053 | 34943 ft | 494 kts | 155° |
| 2026-04-27 01:50 | -2.41068 | 10.58663 | 34943 ft | 494 kts | 155° |
| 2026-04-27 01:51 | -2.47421 | 10.61269 | 34946 ft | 494 kts | 155° |
| 2026-04-27 01:51 | -2.53744 | 10.63863 | 34942 ft | 493 kts | 155° |
| 2026-04-27 01:52 | -2.60099 | 10.66471 | 34930 ft | 493 kts | 155° |
| 2026-04-27 01:52 | -2.66456 | 10.69082 | 34939 ft | 493 kts | 155° |
| 2026-04-27 01:53 | -2.72800 | 10.71686 | 34937 ft | 492 kts | 155° |
| 2026-04-27 01:53 | -2.79126 | 10.74282 | 34938 ft | 491 kts | 155° |
| 2026-04-27 01:54 | -2.85406 | 10.76860 | 34947 ft | 490 kts | 155° |
| 2026-04-27 01:54 | -2.91727 | 10.79456 | 34942 ft | 490 kts | 155° |
| 2026-04-27 01:55 | -2.98049 | 10.82053 | 34936 ft | 490 kts | 155° |
| 2026-04-27 01:55 | -3.04320 | 10.84631 | 34934 ft | 491 kts | 156° |
| 2026-04-27 01:56 | -3.13809 | 10.88527 | 34945 ft | 492 kts | 156° |
| 2026-04-27 01:56 | -3.20143 | 10.91127 | 34945 ft | 492 kts | 156° |
| 2026-04-27 01:57 | -3.26489 | 10.93733 | 34942 ft | 493 kts | 156° |
| 2026-04-27 01:57 | -3.32836 | 10.96341 | 34940 ft | 493 kts | 156° |
| 2026-04-27 01:58 | -3.39186 | 10.98950 | 34934 ft | 493 kts | 156° |
| 2026-04-27 01:58 | -3.45381 | 11.01496 | 34942 ft | 494 kts | 156° |
| 2026-04-27 01:59 | -3.51746 | 11.04113 | 34941 ft | 495 kts | 156° |
| 2026-04-27 01:59 | -3.58116 | 11.06731 | 34940 ft | 495 kts | 156° |
| 2026-04-27 02:00 | -3.64493 | 11.09353 | 34936 ft | 496 kts | 156° |
| 2026-04-27 02:00 | -3.70876 | 11.11979 | 34940 ft | 496 kts | 156° |
| 2026-04-27 02:01 | -3.77259 | 11.14605 | 34931 ft | 496 kts | 156° |
| 2026-04-27 02:01 | -3.83640 | 11.17230 | 34930 ft | 495 kts | 156° |
| 2026-04-27 02:02 | -3.89978 | 11.19838 | 34924 ft | 495 kts | 156° |
| 2026-04-27 02:02 | -3.96354 | 11.22461 | 34928 ft | 494 kts | 156° |
| 2026-04-27 02:03 | -4.02712 | 11.25078 | 34929 ft | 494 kts | 156° |
| 2026-04-27 02:03 | -4.09075 | 11.27699 | 34923 ft | 494 kts | 156° |
| 2026-04-27 02:04 | -4.15434 | 11.30320 | 34924 ft | 494 kts | 156° |
| 2026-04-27 02:04 | -4.21749 | 11.32922 | 34925 ft | 494 kts | 156° |
| 2026-04-27 02:05 | -4.28105 | 11.35542 | 34927 ft | 494 kts | 156° |
| 2026-04-27 02:05 | -4.34463 | 11.38164 | 34923 ft | 494 kts | 156° |
| 2026-04-27 02:06 | -4.40838 | 11.40793 | 34925 ft | 494 kts | 156° |
| 2026-04-27 02:06 | -4.47163 | 11.43402 | 34927 ft | 495 kts | 156° |
| 2026-04-27 02:07 | -4.53536 | 11.46031 | 34927 ft | 495 kts | 156° |
| 2026-04-27 02:07 | -4.59918 | 11.48665 | 34930 ft | 496 kts | 156° |
| 2026-04-27 02:08 | -4.66303 | 11.51299 | 34923 ft | 496 kts | 156° |
| 2026-04-27 02:08 | -4.72691 | 11.53936 | 34924 ft | 497 kts | 156° |
| 2026-04-27 02:09 | -4.79082 | 11.56574 | 34923 ft | 497 kts | 156° |
| 2026-04-27 02:09 | -4.85440 | 11.59200 | 34926 ft | 497 kts | 156° |
| 2026-04-27 02:10 | -4.91841 | 11.61844 | 34928 ft | 497 kts | 156° |
| 2026-04-27 02:10 | -4.98248 | 11.64491 | 34925 ft | 498 kts | 156° |
| 2026-04-27 02:11 | -5.04652 | 11.67137 | 34924 ft | 498 kts | 156° |
| 2026-04-27 02:11 | -5.11066 | 11.69788 | 34928 ft | 499 kts | 156° |
| 2026-04-27 02:12 | -5.17487 | 11.72437 | 34924 ft | 499 kts | 156° |
| 2026-04-27 02:12 | -5.23875 | 11.75065 | 34927 ft | 498 kts | 156° |
| 2026-04-27 02:13 | -5.30291 | 11.77704 | 34931 ft | 498 kts | 156° |
| 2026-04-27 02:13 | -5.36702 | 11.80345 | 34931 ft | 497 kts | 156° |
| 2026-04-27 02:14 | -5.43111 | 11.82987 | 34929 ft | 497 kts | 156° |
| 2026-04-27 02:14 | -5.49511 | 11.85626 | 34926 ft | 497 kts | 156° |
| 2026-04-27 02:15 | -5.55910 | 11.88264 | 34931 ft | 497 kts | 156° |
| 2026-04-27 02:15 | -5.62302 | 11.90900 | 34933 ft | 497 kts | 156° |
| 2026-04-27 02:16 | -5.68703 | 11.93540 | 34931 ft | 497 kts | 156° |
| 2026-04-27 02:16 | -5.75071 | 11.96167 | 34932 ft | 497 kts | 156° |
| 2026-04-27 02:17 | -5.81473 | 11.98810 | 34937 ft | 498 kts | 156° |
| 2026-04-27 02:17 | -5.87740 | 12.01398 | 34937 ft | 498 kts | 156° |
| 2026-04-27 02:18 | -5.94149 | 12.04044 | 34935 ft | 498 kts | 156° |
| 2026-04-27 02:18 | -6.00563 | 12.06695 | 34937 ft | 499 kts | 156° |
| 2026-04-27 02:19 | -6.06988 | 12.09349 | 34939 ft | 499 kts | 156° |
| 2026-04-27 02:19 | -6.13428 | 12.12009 | 34941 ft | 500 kts | 156° |
| 2026-04-27 02:20 | -6.19831 | 12.14655 | 34943 ft | 501 kts | 156° |
| 2026-04-27 02:20 | -6.26277 | 12.17320 | 34939 ft | 501 kts | 156° |
| 2026-04-27 02:21 | -6.32724 | 12.19986 | 34938 ft | 501 kts | 156° |
| 2026-04-27 02:21 | -6.39192 | 12.22660 | 34938 ft | 501 kts | 156° |
| 2026-04-27 02:22 | -6.45648 | 12.25332 | 34943 ft | 502 kts | 156° |
| 2026-04-27 02:22 | -6.52102 | 12.28004 | 34938 ft | 502 kts | 156° |
| 2026-04-27 02:23 | -6.58570 | 12.30683 | 34937 ft | 502 kts | 156° |
| 2026-04-27 02:23 | -6.65033 | 12.33359 | 34936 ft | 502 kts | 156° |
| 2026-04-27 02:24 | -6.71459 | 12.36021 | 34938 ft | 502 kts | 156° |
| 2026-04-27 02:24 | -6.77930 | 12.38702 | 34939 ft | 503 kts | 156° |
| 2026-04-27 02:25 | -6.84402 | 12.41385 | 34942 ft | 503 kts | 155° |
| 2026-04-27 02:25 | -6.90868 | 12.44067 | 34939 ft | 502 kts | 155° |
| 2026-04-27 02:26 | -6.97317 | 12.46762 | 34940 ft | 501 kts | 154° |
| 2026-04-27 02:26 | -7.03399 | 12.50032 | 34947 ft | 492 kts | 143° |
| 2026-04-27 02:27 | -7.08886 | 12.54173 | 34946 ft | 494 kts | 140° |
| 2026-04-27 02:27 | -7.14361 | 12.58190 | 34944 ft | 489 kts | 144° |
| 2026-04-27 02:28 | -7.20196 | 12.61920 | 34950 ft | 501 kts | 146° |
| 2026-04-27 02:28 | -7.26087 | 12.65668 | 34941 ft | 501 kts | 145° |
| 2026-04-27 02:29 | -7.31906 | 12.69511 | 34939 ft | 499 kts | 144° |
| 2026-04-27 02:29 | -7.37677 | 12.73403 | 34938 ft | 498 kts | 144° |
| 2026-04-27 02:30 | -7.43428 | 12.77291 | 34944 ft | 497 kts | 143° |
| 2026-04-27 02:30 | -7.49131 | 12.81133 | 34944 ft | 494 kts | 144° |
| 2026-04-27 02:31 | -7.54877 | 12.84999 | 34249 ft | 502 kts | 144° |
| 2026-04-27 02:31 | -7.57784 | 12.86957 | 33403 ft | 503 kts | 144° |
| 2026-04-27 02:31 | -7.60698 | 12.88920 | 32494 ft | 504 kts | 144° |
| 2026-04-27 02:32 | -7.63616 | 12.90886 | 31559 ft | 504 kts | 144° |
| 2026-04-27 02:32 | -7.66508 | 12.92834 | 30588 ft | 506 kts | 144° |
| 2026-04-27 02:32 | -7.69428 | 12.94801 | 29864 ft | 502 kts | 144° |
| 2026-04-27 02:32 | -7.72323 | 12.96750 | 29073 ft | 497 kts | 144° |
| 2026-04-27 02:33 | -7.75181 | 12.98672 | 28394 ft | 491 kts | 144° |
| 2026-04-27 02:33 | -7.77919 | 13.00512 | 27753 ft | 485 kts | 144° |
| 2026-04-27 02:33 | -7.80711 | 13.02390 | 27120 ft | 480 kts | 144° |
| 2026-04-27 02:33 | -7.83477 | 13.04252 | 26500 ft | 475 kts | 144° |
| 2026-04-27 02:34 | -7.86213 | 13.06094 | 25870 ft | 471 kts | 144° |
| 2026-04-27 02:34 | -7.88925 | 13.07920 | 25246 ft | 467 kts | 144° |
| 2026-04-27 02:34 | -7.91622 | 13.09737 | 24639 ft | 464 kts | 144° |
| 2026-04-27 02:34 | -7.94296 | 13.11540 | 24028 ft | 461 kts | 144° |
| 2026-04-27 02:35 | -7.96921 | 13.13312 | 23390 ft | 458 kts | 144° |
| 2026-04-27 02:35 | -7.99565 | 13.15097 | 22698 ft | 455 kts | 144° |
| 2026-04-27 02:35 | -8.02188 | 13.16868 | 22087 ft | 451 kts | 144° |
| 2026-04-27 02:35 | -8.04785 | 13.18621 | 21480 ft | 446 kts | 144° |
| 2026-04-27 02:36 | -8.06490 | 13.19771 | 21093 ft | 444 kts | 144° |
| 2026-04-27 02:36 | -8.09907 | 13.22077 | 20315 ft | 438 kts | 144° |
| 2026-04-27 02:36 | -8.11584 | 13.23208 | 19929 ft | 436 kts | 144° |
| 2026-04-27 02:36 | -8.14095 | 13.24903 | 19348 ft | 433 kts | 144° |
| 2026-04-27 02:37 | -8.17398 | 13.27133 | 18578 ft | 429 kts | 143° |
| 2026-04-27 02:37 | -8.19874 | 13.28805 | 17969 ft | 427 kts | 143° |
| 2026-04-27 02:37 | -8.21539 | 13.29931 | 17540 ft | 425 kts | 143° |
| 2026-04-27 02:37 | -8.23981 | 13.31581 | 16949 ft | 420 kts | 144° |
| 2026-04-27 02:38 | -8.26369 | 13.33195 | 16395 ft | 416 kts | 144° |
| 2026-04-27 02:38 | -8.28764 | 13.34815 | 15837 ft | 412 kts | 144° |
| 2026-04-27 02:38 | -8.31137 | 13.36420 | 15279 ft | 408 kts | 144° |
| 2026-04-27 02:38 | -8.33488 | 13.38010 | 14758 ft | 405 kts | 144° |
| 2026-04-27 02:39 | -8.35820 | 13.39586 | 14201 ft | 402 kts | 144° |
| 2026-04-27 02:39 | -8.38135 | 13.41151 | 13631 ft | 399 kts | 144° |
| 2026-04-27 02:39 | -8.40435 | 13.42705 | 13131 ft | 394 kts | 144° |
| 2026-04-27 02:39 | -8.42706 | 13.44241 | 12513 ft | 392 kts | 144° |
| 2026-04-27 02:40 | -8.44927 | 13.45742 | 11971 ft | 375 kts | 144° |
| 2026-04-27 02:40 | -8.47047 | 13.47173 | 11456 ft | 356 kts | 144° |
| 2026-04-27 02:40 | -8.49056 | 13.48528 | 11082 ft | 337 kts | 144° |
| 2026-04-27 02:40 | -8.50912 | 13.49780 | 10963 ft | 313 kts | 144° |
| 2026-04-27 02:41 | -8.52665 | 13.50963 | 10822 ft | 292 kts | 144° |
| 2026-04-27 02:41 | -8.54294 | 13.52064 | 10711 ft | 272 kts | 144° |
| 2026-04-27 02:41 | -8.55816 | 13.53093 | 10577 ft | 258 kts | 143° |
| 2026-04-27 02:41 | -8.57347 | 13.54134 | 10528 ft | 273 kts | 143° |
| 2026-04-27 02:42 | -8.58953 | 13.55228 | 10426 ft | 281 kts | 144° |
| 2026-04-27 02:42 | -8.60574 | 13.56330 | 10281 ft | 277 kts | 144° |
| 2026-04-27 02:42 | -8.62154 | 13.57402 | 10170 ft | 269 kts | 144° |
| 2026-04-27 02:42 | -8.63682 | 13.58436 | 10043 ft | 262 kts | 144° |
| 2026-04-27 02:43 | -8.65223 | 13.59480 | 9768 ft | 272 kts | 144° |
| 2026-04-27 02:43 | -8.66812 | 13.60559 | 9444 ft | 278 kts | 144° |
| 2026-04-27 02:43 | -8.68420 | 13.61650 | 9117 ft | 278 kts | 144° |
| 2026-04-27 02:43 | -8.70027 | 13.62739 | 8792 ft | 277 kts | 144° |
| 2026-04-27 02:44 | -8.71606 | 13.63809 | 8469 ft | 276 kts | 144° |
| 2026-04-27 02:44 | -8.73202 | 13.64890 | 8143 ft | 275 kts | 144° |
| 2026-04-27 02:44 | -8.74795 | 13.65969 | 7833 ft | 275 kts | 144° |
| 2026-04-27 02:44 | -8.76378 | 13.67042 | 7516 ft | 274 kts | 144° |
| 2026-04-27 02:45 | -8.77960 | 13.68115 | 7198 ft | 273 kts | 144° |
| 2026-04-27 02:45 | -8.79541 | 13.69187 | 6879 ft | 273 kts | 144° |
| 2026-04-27 02:45 | -8.81120 | 13.70258 | 6561 ft | 273 kts | 144° |
| 2026-04-27 02:45 | -8.82693 | 13.71324 | 6235 ft | 272 kts | 144° |
| 2026-04-27 02:46 | -8.84247 | 13.72379 | 5902 ft | 272 kts | 144° |
| 2026-04-27 02:46 | -8.85862 | 13.73338 | 5548 ft | 268 kts | 161° |
| 2026-04-27 02:46 | -8.87727 | 13.73465 | 5242 ft | 267 kts | 193° |
| 2026-04-27 02:46 | -8.89349 | 13.72646 | 4974 ft | 266 kts | 220° |
| 2026-04-27 02:47 | -8.90649 | 13.71326 | 4719 ft | 264 kts | 228° |
| 2026-04-27 02:47 | -8.91853 | 13.69958 | 4567 ft | 256 kts | 228° |
| 2026-04-27 02:47 | -8.93022 | 13.68647 | 4442 ft | 246 kts | 227° |
| 2026-04-27 02:47 | -8.94166 | 13.67368 | 4173 ft | 243 kts | 228° |
| 2026-04-27 02:48 | -8.95246 | 13.66072 | 3868 ft | 238 kts | 232° |
| 2026-04-27 02:48 | -8.96212 | 13.64768 | 3573 ft | 224 kts | 233° |
| 2026-04-27 02:48 | -8.97042 | 13.63513 | 3327 ft | 205 kts | 237° |
| 2026-04-27 02:48 | -8.97764 | 13.62349 | 3051 ft | 185 kts | 237° |
| 2026-04-27 02:49 | -8.98422 | 13.61276 | 2824 ft | 174 kts | 237° |
| 2026-04-27 02:49 | -8.99035 | 13.60271 | 2536 ft | 161 kts | 235° |
| 2026-04-27 02:49 | -8.99660 | 13.59365 | 2276 ft | 154 kts | 230° |
| 2026-04-27 02:49 | -9.00315 | 13.58522 | 2046 ft | 154 kts | 229° |
| 2026-04-27 02:50 | -9.00965 | 13.57662 | 1825 ft | 153 kts | 231° |
| 2026-04-27 02:50 | -9.01564 | 13.56791 | 1680 ft | 150 kts | 233° |
| 2026-04-27 02:50 | -9.02145 | 13.55928 | 1545 ft | 150 kts | 231° |
| 2026-04-27 02:50 | -9.02753 | 13.55071 | 1382 ft | 150 kts | 231° |
| 2026-04-27 02:51 | -9.03371 | 13.54203 | 1176 ft | 154 kts | 232° |
| 2026-04-27 02:51 | -9.03998 | 13.53308 | 927 ft | 156 kts | 233° |
| 2026-04-27 02:51 | -9.04605 | 13.52430 | 681 ft | 149 kts | 234° |
| 2026-04-27 02:51 | -9.05194 | 13.51582 | 563 ft | 146 kts | 235° |
| 2026-04-27 02:52 | -9.05716 | 13.50836 | 560 ft | 106 kts | 235° |
| 2026-04-27 02:52 | -9.06034 | 13.50381 | 544 ft | 52 kts | 234° |
| 2026-04-27 02:52 | -9.06186 | 13.50161 | 544 ft | 34 kts | 235° |
| 2026-04-27 02:52 | -9.06287 | 13.49961 | 545 ft | 31 kts | 268° |
| 2026-04-27 02:53 | -9.06286 | 13.49810 | 544 ft | 12 kts | 273° |
| 2026-04-27 02:53 | -9.06263 | 13.49779 | 544 ft | 4 kts | 342° |
| 2026-04-27 02:53 | -9.06239 | 13.49786 | 543 ft | 4 kts | 36° |
| 2026-04-27 02:53 | -9.06218 | 13.49823 | 544 ft | 11 kts | 60° |
| 2026-04-27 02:54 | -9.06152 | 13.49914 | 544 ft | 18 kts | 53° |
| 2026-04-27 02:54 | -9.06079 | 13.50010 | 543 ft | 16 kts | 43° |
| 2026-04-27 02:54 | -9.05993 | 13.49977 | 543 ft | 15 kts | 321° |
| 2026-04-27 02:54 | -9.05913 | 13.49915 | 543 ft | 15 kts | 322° |
| 2026-04-27 02:55 | -9.05832 | 13.49853 | 545 ft | 15 kts | 323° |
| 2026-04-27 02:55 | -9.05751 | 13.49791 | 543 ft | 15 kts | 322° |
| 2026-04-27 02:55 | -9.05680 | 13.49775 | 543 ft | 11 kts | 37° |
| 2026-04-27 02:55 | -9.05629 | 13.49835 | 543 ft | 11 kts | 52° |
| 2026-04-27 02:56 | -9.05581 | 13.49898 | 541 ft | 11 kts | 53° |
| 2026-04-27 02:56 | -9.05534 | 13.49961 | 543 ft | 11 kts | 53° |
| 2026-04-27 02:56 | -9.05487 | 13.50024 | 543 ft | 11 kts | 53° |
| 2026-04-27 02:56 | -9.05430 | 13.50035 | 543 ft | 9 kts | 326° |
| 2026-04-27 02:57 | -9.05398 | 13.50011 | 543 ft | 4 kts | 322° |
| 2026-04-27 02:57 | -9.05396 | 13.50010 | 543 ft | 0 kts | 322° |